sensor_id;sensor_type;location;lat;lon;timestamp;pressure;altitude;pressure_sealevel;temperature;humidity
69302;BME280;56689;47.842;8.974;2024-02-16T00:01:01;96503.50;;;5.99;100.00
69302;BME280;56689;47.842;8.974;2024-02-16T00:03:27;96507.63;;;5.91;100.00
69302;BME280;56689;47.842;8.974;2024-02-16T00:05:53;96462.38;;;5.65;100.00
69302;BME280;56689;47.842;8.974;2024-02-16T00:08:19;96477.16;;;5.75;100.00
69302;BME280;56689;47.842;8.974;2024-02-16T00:10:45;96445.88;;;5.57;100.00
69302;BME280;56689;47.842;8.974;2024-02-16T00:13:11;96516.28;;;5.95;100.00
69302;BME280;56689;47.842;8.974;2024-02-16T00:15:37;96470.97;;;5.67;100.00
69302;BME280;56689;47.842;8.974;2024-02-16T00:18:06;96505.59;;;5.78;100.00
69302;BME280;56689;47.842;8.974;2024-02-16T00:20:32;96527.25;;;5.88;100.00
69302;BME280;56689;47.842;8.974;2024-02-16T00:22:58;96505.50;;;5.75;100.00
69302;BME280;56689;47.842;8.974;2024-02-16T00:25:25;96482.13;;;5.66;100.00
69302;BME280;56689;47.842;8.974;2024-02-16T00:27:50;96484.06;;;5.76;100.00
69302;BME280;56689;47.842;8.974;2024-02-16T00:30:18;96481.44;;;5.74;100.00
69302;BME280;56689;47.842;8.974;2024-02-16T00:32:44;96482.38;;;5.76;100.00
69302;BME280;56689;47.842;8.974;2024-02-16T00:35:11;96503.22;;;5.89;100.00
69302;BME280;56689;47.842;8.974;2024-02-16T00:37:36;96493.78;;;5.88;100.00
69302;BME280;56689;47.842;8.974;2024-02-16T00:40:03;96489.59;;;5.91;100.00
69302;BME280;56689;47.842;8.974;2024-02-16T00:42:29;96518.38;;;6.11;100.00
69302;BME280;56689;47.842;8.974;2024-02-16T00:44:56;96459.19;;;5.76;100.00
69302;BME280;56689;47.842;8.974;2024-02-16T00:47:22;96504.41;;;6.01;100.00
69302;BME280;56689;47.842;8.974;2024-02-16T00:49:49;96446.91;;;5.65;100.00
69302;BME280;56689;47.842;8.974;2024-02-16T00:52:14;96494.75;;;5.91;100.00
69302;BME280;56689;47.842;8.974;2024-02-16T00:54:40;96498.22;;;5.93;100.00
69302;BME280;56689;47.842;8.974;2024-02-16T00:57:05;96459.97;;;5.74;100.00
69302;BME280;56689;47.842;8.974;2024-02-16T00:59:31;96497.41;;;5.96;100.00
69302;BME280;56689;47.842;8.974;2024-02-16T01:01:56;96500.00;;;5.96;100.00
69302;BME280;56689;47.842;8.974;2024-02-16T01:04:21;96477.34;;;5.83;100.00
69302;BME280;56689;47.842;8.974;2024-02-16T01:06:48;96498.25;;;5.95;100.00
69302;BME280;56689;47.842;8.974;2024-02-16T01:09:13;96471.25;;;5.79;100.00
69302;BME280;56689;47.842;8.974;2024-02-16T01:11:42;96487.97;;;5.96;100.00
69302;BME280;56689;47.842;8.974;2024-02-16T01:14:07;96495.78;;;5.99;100.00
69302;BME280;56689;47.842;8.974;2024-02-16T01:16:33;96493.34;;;6.06;100.00
69302;BME280;56689;47.842;8.974;2024-02-16T01:18:59;96489.09;;;6.09;100.00
69302;BME280;56689;47.842;8.974;2024-02-16T01:21:24;96478.50;;;5.95;100.00
69302;BME280;56689;47.842;8.974;2024-02-16T01:23:50;96502.69;;;6.02;100.00
69302;BME280;56689;47.842;8.974;2024-02-16T01:26:15;96488.75;;;5.92;100.00
69302;BME280;56689;47.842;8.974;2024-02-16T01:28:41;96474.81;;;5.84;100.00
69302;BME280;56689;47.842;8.974;2024-02-16T01:31:06;96446.81;;;5.60;100.00
69302;BME280;56689;47.842;8.974;2024-02-16T01:33:35;96505.94;;;5.93;100.00
69302;BME280;56689;47.842;8.974;2024-02-16T01:36:01;96481.75;;;5.88;100.00
69302;BME280;56689;47.842;8.974;2024-02-16T01:38:27;96453.78;;;5.64;100.00
69302;BME280;56689;47.842;8.974;2024-02-16T01:40:52;96477.00;;;5.67;100.00
69302;BME280;56689;47.842;8.974;2024-02-16T01:43:21;96456.97;;;5.56;100.00
69302;BME280;56689;47.842;8.974;2024-02-16T01:45:47;96479.66;;;5.70;100.00
69302;BME280;56689;47.842;8.974;2024-02-16T01:48:14;96474.34;;;5.63;100.00
69302;BME280;56689;47.842;8.974;2024-02-16T01:50:42;96500.44;;;5.78;100.00
69302;BME280;56689;47.842;8.974;2024-02-16T01:53:09;96450.94;;;5.54;100.00
69302;BME280;56689;47.842;8.974;2024-02-16T01:55:35;96438.84;;;5.49;100.00
69302;BME280;56689;47.842;8.974;2024-02-16T01:58:00;96504.06;;;5.88;100.00
69302;BME280;56689;47.842;8.974;2024-02-16T02:00:26;96487.25;;;5.64;100.00
69302;BME280;56689;47.842;8.974;2024-02-16T02:02:51;96499.50;;;5.76;100.00
69302;BME280;56689;47.842;8.974;2024-02-16T02:05:17;96468.19;;;5.56;100.00
69302;BME280;56689;47.842;8.974;2024-02-16T02:07:43;96493.31;;;5.68;100.00
69302;BME280;56689;47.842;8.974;2024-02-16T02:10:09;96494.09;;;5.64;100.00
69302;BME280;56689;47.842;8.974;2024-02-16T02:12:38;96499.25;;;5.64;100.00
69302;BME280;56689;47.842;8.974;2024-02-16T02:15:05;96485.13;;;5.48;100.00
69302;BME280;56689;47.842;8.974;2024-02-16T02:17:30;96465.09;;;5.35;100.00
69302;BME280;56689;47.842;8.974;2024-02-16T02:19:56;96518.03;;;5.60;100.00
69302;BME280;56689;47.842;8.974;2024-02-16T02:22:21;96518.91;;;5.60;100.00
69302;BME280;56689;47.842;8.974;2024-02-16T02:24:48;96512.03;;;5.61;100.00
69302;BME280;56689;47.842;8.974;2024-02-16T02:27:16;96459.00;;;5.31;100.00
69302;BME280;56689;47.842;8.974;2024-02-16T02:29:42;96477.41;;;5.48;100.00
69302;BME280;56689;47.842;8.974;2024-02-16T02:32:09;96441.75;;;5.27;100.00
69302;BME280;56689;47.842;8.974;2024-02-16T02:34:35;96512.16;;;5.65;100.00
69302;BME280;56689;47.842;8.974;2024-02-16T02:37:01;96511.34;;;5.68;100.00
69302;BME280;56689;47.842;8.974;2024-02-16T02:39:27;96510.59;;;5.72;100.00
69302;BME280;56689;47.842;8.974;2024-02-16T02:41:52;96502.00;;;5.71;100.00
69302;BME280;56689;47.842;8.974;2024-02-16T02:44:18;96468.94;;;5.52;100.00
69302;BME280;56689;47.842;8.974;2024-02-16T02:46:44;96505.56;;;5.76;100.00
69302;BME280;56689;47.842;8.974;2024-02-16T02:49:10;96503.06;;;5.81;100.00
69302;BME280;56689;47.842;8.974;2024-02-16T02:51:35;96472.56;;;5.60;100.00
69302;BME280;56689;47.842;8.974;2024-02-16T02:54:01;96498.63;;;5.74;100.00
69302;BME280;56689;47.842;8.974;2024-02-16T02:56:28;96449.88;;;5.44;100.00
69302;BME280;56689;47.842;8.974;2024-02-16T02:58:54;96474.94;;;5.53;100.00
69302;BME280;56689;47.842;8.974;2024-02-16T03:01:19;96456.72;;;5.43;100.00
69302;BME280;56689;47.842;8.974;2024-02-16T03:03:45;96484.41;;;5.54;100.00
69302;BME280;56689;47.842;8.974;2024-02-16T03:06:12;96479.97;;;5.46;100.00
69302;BME280;56689;47.842;8.974;2024-02-16T03:08:37;96420.75;;;5.09;100.00
69302;BME280;56689;47.842;8.974;2024-02-16T03:11:03;96418.19;;;5.10;100.00
69302;BME280;56689;47.842;8.974;2024-02-16T03:13:29;96485.97;;;5.47;100.00
69302;BME280;56689;47.842;8.974;2024-02-16T03:15:55;96428.41;;;5.07;100.00
69302;BME280;56689;47.842;8.974;2024-02-16T03:18:20;96459.50;;;5.15;100.00
69302;BME280;56689;47.842;8.974;2024-02-16T03:20:46;96499.16;;;5.23;100.00
69302;BME280;56689;47.842;8.974;2024-02-16T03:23:14;96462.28;;;4.89;100.00
69302;BME280;56689;47.842;8.974;2024-02-16T03:25:39;96500.59;;;5.13;100.00
69302;BME280;56689;47.842;8.974;2024-02-16T03:28:05;96473.50;;;4.93;100.00
69302;BME280;56689;47.842;8.974;2024-02-16T03:30:31;96459.38;;;4.76;100.00
69302;BME280;56689;47.842;8.974;2024-02-16T03:32:56;96503.66;;;4.99;100.00
69302;BME280;56689;47.842;8.974;2024-02-16T03:35:22;96515.00;;;5.07;100.00
69302;BME280;56689;47.842;8.974;2024-02-16T03:37:47;96512.38;;;5.04;100.00
69302;BME280;56689;47.842;8.974;2024-02-16T03:40:13;96482.84;;;4.88;100.00
69302;BME280;56689;47.842;8.974;2024-02-16T03:42:41;96486.38;;;4.93;100.00
69302;BME280;56689;47.842;8.974;2024-02-16T03:45:07;96454.31;;;4.80;100.00
69302;BME280;56689;47.842;8.974;2024-02-16T03:47:32;96525.31;;;5.07;100.00
69302;BME280;56689;47.842;8.974;2024-02-16T03:49:58;96529.50;;;5.02;100.00
69302;BME280;56689;47.842;8.974;2024-02-16T03:52:24;96516.31;;;4.89;100.00
69302;BME280;56689;47.842;8.974;2024-02-16T03:54:49;96503.28;;;4.83;100.00
69302;BME280;56689;47.842;8.974;2024-02-16T03:57:15;96524.00;;;4.88;100.00
69302;BME280;56689;47.842;8.974;2024-02-16T03:59:45;96535.91;;;4.86;100.00
69302;BME280;56689;47.842;8.974;2024-02-16T04:02:11;96515.97;;;4.77;100.00
69302;BME280;56689;47.842;8.974;2024-02-16T04:04:39;96493.38;;;4.65;100.00
69302;BME280;56689;47.842;8.974;2024-02-16T04:07:05;96469.66;;;4.44;100.00
69302;BME280;56689;47.842;8.974;2024-02-16T04:09:32;96499.13;;;4.57;100.00
69302;BME280;56689;47.842;8.974;2024-02-16T04:11:58;96509.63;;;4.64;100.00
69302;BME280;56689;47.842;8.974;2024-02-16T04:14:23;96538.44;;;4.84;100.00
69302;BME280;56689;47.842;8.974;2024-02-16T04:16:48;96513.03;;;4.63;100.00
69302;BME280;56689;47.842;8.974;2024-02-16T04:19:14;96491.38;;;4.54;100.00
69302;BME280;56689;47.842;8.974;2024-02-16T04:21:39;96544.50;;;4.86;100.00
69302;BME280;56689;47.842;8.974;2024-02-16T04:24:05;96508.88;;;4.69;100.00
69302;BME280;56689;47.842;8.974;2024-02-16T04:26:30;96515.78;;;4.70;100.00
69302;BME280;56689;47.842;8.974;2024-02-16T04:28:56;96546.25;;;4.87;100.00
69302;BME280;56689;47.842;8.974;2024-02-16T04:31:21;96498.34;;;4.59;100.00
69302;BME280;56689;47.842;8.974;2024-02-16T04:33:47;96515.59;;;4.63;100.00
69302;BME280;56689;47.842;8.974;2024-02-16T04:36:12;96528.78;;;4.76;100.00
69302;BME280;56689;47.842;8.974;2024-02-16T04:38:38;96553.22;;;4.91;100.00
69302;BME280;56689;47.842;8.974;2024-02-16T04:41:06;96544.31;;;4.80;100.00
69302;BME280;56689;47.842;8.974;2024-02-16T04:43:33;96516.34;;;4.59;100.00
69302;BME280;56689;47.842;8.974;2024-02-16T04:45:58;96546.50;;;4.65;100.00
69302;BME280;56689;47.842;8.974;2024-02-16T04:48:25;96521.91;;;4.43;100.00
69302;BME280;56689;47.842;8.974;2024-02-16T04:50:50;96518.31;;;4.38;100.00
69302;BME280;56689;47.842;8.974;2024-02-16T04:53:16;96521.75;;;4.38;100.00
69302;BME280;56689;47.842;8.974;2024-02-16T04:55:42;96502.44;;;4.21;100.00
69302;BME280;56689;47.842;8.974;2024-02-16T04:58:07;96511.00;;;4.22;100.00
69302;BME280;56689;47.842;8.974;2024-02-16T05:00:37;96497.19;;;4.18;100.00
69302;BME280;56689;47.842;8.974;2024-02-16T05:03:03;96560.81;;;4.55;100.00
69302;BME280;56689;47.842;8.974;2024-02-16T05:05:28;96554.75;;;4.53;100.00
69302;BME280;56689;47.842;8.974;2024-02-16T05:07:53;96540.47;;;4.33;100.00
69302;BME280;56689;47.842;8.974;2024-02-16T05:10:19;96539.31;;;4.23;100.00
69302;BME280;56689;47.842;8.974;2024-02-16T05:12:45;96543.50;;;4.20;100.00
69302;BME280;56689;47.842;8.974;2024-02-16T05:15:11;96537.72;;;4.27;100.00
69302;BME280;56689;47.842;8.974;2024-02-16T05:17:38;96513.22;;;4.09;100.00
69302;BME280;56689;47.842;8.974;2024-02-16T05:20:10;96537.75;;;4.28;100.00
69302;BME280;56689;47.842;8.974;2024-02-16T05:22:41;96556.19;;;4.44;100.00
69302;BME280;56689;47.842;8.974;2024-02-16T05:25:08;96534.19;;;4.23;100.00
69302;BME280;56689;47.842;8.974;2024-02-16T05:27:34;96549.97;;;4.35;100.00
69302;BME280;56689;47.842;8.974;2024-02-16T05:30:00;96529.06;;;4.25;100.00
69302;BME280;56689;47.842;8.974;2024-02-16T05:32:25;96506.53;;;4.15;100.00
69302;BME280;56689;47.842;8.974;2024-02-16T05:34:51;96524.03;;;4.28;100.00
69302;BME280;56689;47.842;8.974;2024-02-16T05:37:16;96519.63;;;4.24;100.00
69302;BME280;56689;47.842;8.974;2024-02-16T05:39:43;96510.16;;;4.21;100.00
69302;BME280;56689;47.842;8.974;2024-02-16T05:42:20;96520.31;;;4.18;100.00
69302;BME280;56689;47.842;8.974;2024-02-16T05:44:47;96502.69;;;4.00;100.00
69302;BME280;56689;47.842;8.974;2024-02-16T05:47:13;96532.13;;;4.11;100.00
69302;BME280;56689;47.842;8.974;2024-02-16T05:49:39;96563.41;;;4.27;100.00
69302;BME280;56689;47.842;8.974;2024-02-16T05:52:05;96534.59;;;4.08;100.00
69302;BME280;56689;47.842;8.974;2024-02-16T05:54:46;96551.28;;;4.23;100.00
69302;BME280;56689;47.842;8.974;2024-02-16T05:57:15;96534.75;;;4.13;100.00
69302;BME280;56689;47.842;8.974;2024-02-16T05:59:41;96574.56;;;4.27;100.00
69302;BME280;56689;47.842;8.974;2024-02-16T06:02:07;96575.31;;;4.25;100.00
69302;BME280;56689;47.842;8.974;2024-02-16T06:04:34;96552.56;;;4.07;100.00
69302;BME280;56689;47.842;8.974;2024-02-16T06:06:59;96536.72;;;3.93;100.00
69302;BME280;56689;47.842;8.974;2024-02-16T06:09:26;96566.31;;;4.09;100.00
69302;BME280;56689;47.842;8.974;2024-02-16T06:11:51;96533.97;;;3.87;100.00
69302;BME280;56689;47.842;8.974;2024-02-16T06:14:16;96553.81;;;3.91;100.00
69302;BME280;56689;47.842;8.974;2024-02-16T06:16:43;96582.41;;;4.03;100.00
69302;BME280;56689;47.842;8.974;2024-02-16T06:19:08;96545.75;;;3.80;100.00
69302;BME280;56689;47.842;8.974;2024-02-16T06:21:35;96580.50;;;3.98;100.00
69302;BME280;56689;47.842;8.974;2024-02-16T06:24:00;96598.44;;;3.96;100.00
69302;BME280;56689;47.842;8.974;2024-02-16T06:26:26;96567.41;;;3.89;100.00
69302;BME280;56689;47.842;8.974;2024-02-16T06:28:51;96606.53;;;4.08;100.00
69302;BME280;56689;47.842;8.974;2024-02-16T06:31:17;96534.47;;;3.75;100.00
69302;BME280;56689;47.842;8.974;2024-02-16T06:33:42;96600.06;;;4.21;100.00
69302;BME280;56689;47.842;8.974;2024-02-16T06:36:07;96555.44;;;3.89;100.00
69302;BME280;56689;47.842;8.974;2024-02-16T06:38:34;96601.59;;;4.15;100.00
69302;BME280;56689;47.842;8.974;2024-02-16T06:41:00;96580.59;;;3.99;100.00
69302;BME280;56689;47.842;8.974;2024-02-16T06:43:25;96619.53;;;4.13;100.00
69302;BME280;56689;47.842;8.974;2024-02-16T06:45:50;96580.28;;;3.90;100.00
69302;BME280;56689;47.842;8.974;2024-02-16T06:48:16;96572.69;;;3.93;100.00
69302;BME280;56689;47.842;8.974;2024-02-16T06:50:41;96589.03;;;3.97;100.00
69302;BME280;56689;47.842;8.974;2024-02-16T06:53:07;96615.16;;;4.10;100.00
69302;BME280;56689;47.842;8.974;2024-02-16T06:55:32;96540.44;;;3.74;100.00
69302;BME280;56689;47.842;8.974;2024-02-16T06:57:57;96620.25;;;4.09;100.00
69302;BME280;56689;47.842;8.974;2024-02-16T07:00:23;96622.97;;;4.14;100.00
69302;BME280;56689;47.842;8.974;2024-02-16T07:02:48;96592.03;;;4.10;100.00
69302;BME280;56689;47.842;8.974;2024-02-16T07:05:14;96609.56;;;4.24;100.00
69302;BME280;56689;47.842;8.974;2024-02-16T07:07:40;96625.53;;;4.42;100.00
69302;BME280;56689;47.842;8.974;2024-02-16T07:10:07;96630.75;;;4.45;100.00
69302;BME280;56689;47.842;8.974;2024-02-16T07:12:33;96636.00;;;4.48;100.00
69302;BME280;56689;47.842;8.974;2024-02-16T07:14:59;96638.56;;;4.48;100.00
69302;BME280;56689;47.842;8.974;2024-02-16T07:17:24;96621.22;;;4.41;100.00
69302;BME280;56689;47.842;8.974;2024-02-16T07:19:49;96648.91;;;4.50;100.00
69302;BME280;56689;47.842;8.974;2024-02-16T07:22:15;96643.75;;;4.50;100.00
69302;BME280;56689;47.842;8.974;2024-02-16T07:24:41;96643.06;;;4.55;100.00
69302;BME280;56689;47.842;8.974;2024-02-16T07:27:06;96616.28;;;4.47;100.00
69302;BME280;56689;47.842;8.974;2024-02-16T07:29:32;96631.34;;;4.65;100.00
69302;BME280;56689;47.842;8.974;2024-02-16T07:31:57;96621.03;;;4.63;100.00
69302;BME280;56689;47.842;8.974;2024-02-16T07:34:23;96637.63;;;4.75;100.00
69302;BME280;56689;47.842;8.974;2024-02-16T07:36:48;96602.81;;;4.56;100.00
69302;BME280;56689;47.842;8.974;2024-02-16T07:39:14;96601.34;;;4.65;100.00
69302;BME280;56689;47.842;8.974;2024-02-16T07:41:39;96631.44;;;4.98;100.00
69302;BME280;56689;47.842;8.974;2024-02-16T07:44:05;96604.88;;;4.99;100.00
69302;BME280;56689;47.842;8.974;2024-02-16T07:46:31;96612.09;;;5.12;100.00
69302;BME280;56689;47.842;8.974;2024-02-16T07:48:56;96663.66;;;5.48;100.00
69302;BME280;56689;47.842;8.974;2024-02-16T07:51:21;96618.72;;;5.36;100.00
69302;BME280;56689;47.842;8.974;2024-02-16T07:53:47;96624.25;;;5.51;100.00
69302;BME280;56689;47.842;8.974;2024-02-16T07:56:12;96662.00;;;5.84;100.00
69302;BME280;56689;47.842;8.974;2024-02-16T07:58:41;96663.28;;;5.99;100.00
69302;BME280;56689;47.842;8.974;2024-02-16T08:01:07;96603.47;;;5.78;100.00
69302;BME280;56689;47.842;8.974;2024-02-16T08:03:32;96649.06;;;6.17;100.00
69302;BME280;56689;47.842;8.974;2024-02-16T08:05:58;96591.19;;;6.02;100.00
69302;BME280;56689;47.842;8.974;2024-02-16T08:08:24;96661.84;;;6.48;100.00
69302;BME280;56689;47.842;8.974;2024-02-16T08:10:49;96662.88;;;6.56;100.00
69302;BME280;56689;47.842;8.974;2024-02-16T08:13:16;96631.69;;;6.46;100.00
69302;BME280;56689;47.842;8.974;2024-02-16T08:15:41;96665.06;;;6.79;100.00
69302;BME280;56689;47.842;8.974;2024-02-16T08:18:07;96610.38;;;6.53;100.00
69302;BME280;56689;47.842;8.974;2024-02-16T08:20:32;96593.19;;;6.55;100.00
69302;BME280;56689;47.842;8.974;2024-02-16T08:22:58;96627.34;;;6.84;100.00
69302;BME280;56689;47.842;8.974;2024-02-16T08:25:24;96627.34;;;6.85;100.00
69302;BME280;56689;47.842;8.974;2024-02-16T08:27:50;96627.59;;;6.96;100.00
69302;BME280;56689;47.842;8.974;2024-02-16T08:30:15;96655.56;;;7.19;100.00
69302;BME280;56689;47.842;8.974;2024-02-16T08:32:40;96613.91;;;7.00;100.00
69302;BME280;56689;47.842;8.974;2024-02-16T08:35:06;96617.56;;;7.13;100.00
69302;BME280;56689;47.842;8.974;2024-02-16T08:37:32;96626.38;;;7.23;100.00
69302;BME280;56689;47.842;8.974;2024-02-16T08:39:58;96667.34;;;7.50;100.00
69302;BME280;56689;47.842;8.974;2024-02-16T08:42:23;96672.63;;;7.56;100.00
69302;BME280;56689;47.842;8.974;2024-02-16T08:44:49;96654.56;;;7.56;100.00
69302;BME280;56689;47.842;8.974;2024-02-16T08:47:15;96611.16;;;7.36;100.00
69302;BME280;56689;47.842;8.974;2024-02-16T08:49:40;96672.19;;;7.80;100.00
69302;BME280;56689;47.842;8.974;2024-02-16T08:52:08;96675.72;;;7.85;100.00
69302;BME280;56689;47.842;8.974;2024-02-16T08:54:33;96642.75;;;7.70;100.00
69302;BME280;56689;47.842;8.974;2024-02-16T08:56:59;96671.56;;;7.93;100.00
69302;BME280;56689;47.842;8.974;2024-02-16T08:59:25;96677.78;;;8.04;100.00
69302;BME280;56689;47.842;8.974;2024-02-16T09:01:54;96682.16;;;8.08;100.00
69302;BME280;56689;47.842;8.974;2024-02-16T09:04:19;96663.16;;;8.05;100.00
69302;BME280;56689;47.842;8.974;2024-02-16T09:06:44;96684.06;;;8.18;100.00
69302;BME280;56689;47.842;8.974;2024-02-16T09:09:10;96654.56;;;8.09;100.00
69302;BME280;56689;47.842;8.974;2024-02-16T09:11:36;96619.06;;;7.97;100.00
69302;BME280;56689;47.842;8.974;2024-02-16T09:14:01;96687.84;;;8.37;100.00
69302;BME280;56689;47.842;8.974;2024-02-16T09:16:27;96683.59;;;8.42;100.00
69302;BME280;56689;47.842;8.974;2024-02-16T09:18:52;96680.13;;;8.42;100.00
69302;BME280;56689;47.842;8.974;2024-02-16T09:21:18;96691.41;;;8.45;100.00
69302;BME280;56689;47.842;8.974;2024-02-16T09:23:45;96682.56;;;8.34;100.00
69302;BME280;56689;47.842;8.974;2024-02-16T09:26:10;96702.75;;;8.55;100.00
69302;BME280;56689;47.842;8.974;2024-02-16T09:28:40;96681.97;;;8.49;100.00
69302;BME280;56689;47.842;8.974;2024-02-16T09:31:09;96705.59;;;8.72;100.00
69302;BME280;56689;47.842;8.974;2024-02-16T09:33:34;96671.88;;;8.67;100.00
69302;BME280;56689;47.842;8.974;2024-02-16T09:36:00;96655.59;;;8.74;100.00
69302;BME280;56689;47.842;8.974;2024-02-16T09:38:26;96704.38;;;9.11;100.00
69302;BME280;56689;47.842;8.974;2024-02-16T09:40:51;96702.66;;;9.11;100.00
69302;BME280;56689;47.842;8.974;2024-02-16T09:43:27;96715.84;;;9.26;100.00
69302;BME280;56689;47.842;8.974;2024-02-16T09:45:57;96715.00;;;9.32;100.00
69302;BME280;56689;47.842;8.974;2024-02-16T09:48:27;96660.38;;;9.12;100.00
69302;BME280;56689;47.842;8.974;2024-02-16T09:50:54;96689.97;;;9.31;100.00
69302;BME280;56689;47.842;8.974;2024-02-16T09:53:19;96714.47;;;9.59;100.00
69302;BME280;56689;47.842;8.974;2024-02-16T09:55:49;96693.59;;;9.47;100.00
69302;BME280;56689;47.842;8.974;2024-02-16T09:58:16;96668.63;;;9.53;100.00
69302;BME280;56689;47.842;8.974;2024-02-16T10:00:56;96711.34;;;9.89;100.00
69302;BME280;56689;47.842;8.974;2024-02-16T10:03:26;96687.97;;;9.87;100.00
69302;BME280;56689;47.842;8.974;2024-02-16T10:05:52;96707.25;;;10.14;100.00
69302;BME280;56689;47.842;8.974;2024-02-16T10:08:28;96720.47;;;10.40;96.46
69302;BME280;56689;47.842;8.974;2024-02-16T10:11:03;96688.28;;;10.18;97.49
69302;BME280;56689;47.842;8.974;2024-02-16T10:13:30;96694.53;;;10.37;98.27
69302;BME280;56689;47.842;8.974;2024-02-16T10:16:09;96693.75;;;10.53;96.86
69302;BME280;56689;47.842;8.974;2024-02-16T10:18:37;96676.50;;;10.57;92.78
69302;BME280;56689;47.842;8.974;2024-02-16T10:21:02;96704.38;;;10.87;91.46
69302;BME280;56689;47.842;8.974;2024-02-16T10:23:28;96713.97;;;11.03;89.45
69302;BME280;56689;47.842;8.974;2024-02-16T10:25:54;96727.13;;;11.26;89.99
69302;BME280;56689;47.842;8.974;2024-02-16T10:28:20;96686.22;;;10.91;88.15
69302;BME280;56689;47.842;8.974;2024-02-16T10:30:59;96725.28;;;11.07;88.48
69302;BME280;56689;47.842;8.974;2024-02-16T10:33:28;96728.63;;;10.90;87.17
69302;BME280;56689;47.842;8.974;2024-02-16T10:35:57;96729.53;;;10.94;88.84
69302;BME280;56689;47.842;8.974;2024-02-16T10:38:23;96712.16;;;10.90;88.73
69302;BME280;56689;47.842;8.974;2024-02-16T10:40:50;96699.22;;;10.94;88.37
69302;BME280;56689;47.842;8.974;2024-02-16T10:43:17;96692.38;;;11.09;86.92
69302;BME280;56689;47.842;8.974;2024-02-16T10:45:43;96738.44;;;11.43;83.26
69302;BME280;56689;47.842;8.974;2024-02-16T10:48:10;96733.25;;;11.45;84.06
69302;BME280;56689;47.842;8.974;2024-02-16T10:50:36;96694.19;;;11.28;83.98
69302;BME280;56689;47.842;8.974;2024-02-16T10:53:21;96721.97;;;11.46;84.43
69302;BME280;56689;47.842;8.974;2024-02-16T10:55:48;96722.06;;;11.61;84.49
69302;BME280;56689;47.842;8.974;2024-02-16T10:58:16;96693.41;;;11.52;85.43
69302;BME280;56689;47.842;8.974;2024-02-16T11:00:53;96706.47;;;11.72;82.72
69302;BME280;56689;47.842;8.974;2024-02-16T11:03:22;96722.16;;;11.92;83.63
69302;BME280;56689;47.842;8.974;2024-02-16T11:05:51;96730.84;;;11.97;82.77
69302;BME280;56689;47.842;8.974;2024-02-16T11:08:18;96691.75;;;11.77;80.97
69302;BME280;56689;47.842;8.974;2024-02-16T11:11:00;96695.28;;;11.84;82.22
69302;BME280;56689;47.842;8.974;2024-02-16T11:13:27;96690.06;;;11.91;82.38
69302;BME280;56689;47.842;8.974;2024-02-16T11:15:58;96721.31;;;12.13;82.46
69302;BME280;56689;47.842;8.974;2024-02-16T11:18:25;96701.38;;;12.07;80.43
69302;BME280;56689;47.842;8.974;2024-02-16T11:20:51;96692.72;;;12.16;80.42
69302;BME280;56689;47.842;8.974;2024-02-16T11:23:17;96725.69;;;12.35;78.43
69302;BME280;56689;47.842;8.974;2024-02-16T11:25:50;96697.06;;;12.30;78.62
69302;BME280;56689;47.842;8.974;2024-02-16T11:28:16;96715.28;;;12.44;78.65
69302;BME280;56689;47.842;8.974;2024-02-16T11:30:42;96712.69;;;12.53;78.92
69302;BME280;56689;47.842;8.974;2024-02-16T11:33:11;96664.97;;;12.25;76.17
69302;BME280;56689;47.842;8.974;2024-02-16T11:35:37;96689.25;;;12.43;75.54
69302;BME280;56689;47.842;8.974;2024-02-16T11:38:04;96690.13;;;12.46;74.40
69302;BME280;56689;47.842;8.974;2024-02-16T11:40:29;96710.97;;;12.63;73.65
69302;BME280;56689;47.842;8.974;2024-02-16T11:43:02;96678.81;;;12.49;73.80
69302;BME280;56689;47.842;8.974;2024-02-16T11:45:27;96705.72;;;12.78;73.73
69302;BME280;56689;47.842;8.974;2024-02-16T11:48:06;96707.44;;;12.98;71.87
69302;BME280;56689;47.842;8.974;2024-02-16T11:50:32;96677.03;;;12.98;70.67
69302;BME280;56689;47.842;8.974;2024-02-16T11:52:57;96671.78;;;13.01;71.09
69302;BME280;56689;47.842;8.974;2024-02-16T11:55:23;96668.28;;;13.10;71.20
69302;BME280;56689;47.842;8.974;2024-02-16T11:57:49;96675.22;;;13.19;71.58
69302;BME280;56689;47.842;8.974;2024-02-16T12:00:16;96668.22;;;13.36;71.11
69302;BME280;56689;47.842;8.974;2024-02-16T12:02:41;96670.81;;;13.37;69.81
69302;BME280;56689;47.842;8.974;2024-02-16T12:05:07;96674.22;;;13.56;69.52
69302;BME280;56689;47.842;8.974;2024-02-16T12:07:33;96703.63;;;13.84;67.79
69302;BME280;56689;47.842;8.974;2024-02-16T12:10:00;96698.38;;;13.90;67.80
69302;BME280;56689;47.842;8.974;2024-02-16T12:12:28;96696.66;;;13.85;68.82
69302;BME280;56689;47.842;8.974;2024-02-16T12:14:56;96652.56;;;13.45;68.30
69302;BME280;56689;47.842;8.974;2024-02-16T12:17:22;96667.31;;;13.52;69.06
69302;BME280;56689;47.842;8.974;2024-02-16T12:19:47;96654.31;;;13.38;68.65
69302;BME280;56689;47.842;8.974;2024-02-16T12:22:22;96654.34;;;13.31;68.31
69302;BME280;56689;47.842;8.974;2024-02-16T12:24:50;96692.50;;;13.50;68.81
69302;BME280;56689;47.842;8.974;2024-02-16T12:27:16;96650.00;;;13.30;68.72
69302;BME280;56689;47.842;8.974;2024-02-16T12:29:41;96677.75;;;13.46;69.97
69302;BME280;56689;47.842;8.974;2024-02-16T12:32:07;96689.84;;;13.61;69.00
69302;BME280;56689;47.842;8.974;2024-02-16T12:34:35;96668.16;;;13.50;68.54
69302;BME280;56689;47.842;8.974;2024-02-16T12:37:04;96699.31;;;13.80;68.35
69302;BME280;56689;47.842;8.974;2024-02-16T12:39:30;96649.91;;;13.54;67.89
69302;BME280;56689;47.842;8.974;2024-02-16T12:41:56;96712.31;;;13.88;68.91
69302;BME280;56689;47.842;8.974;2024-02-16T12:44:22;96687.13;;;13.79;69.04
69302;BME280;56689;47.842;8.974;2024-02-16T12:46:47;96675.81;;;13.86;67.38
69302;BME280;56689;47.842;8.974;2024-02-16T12:49:13;96661.94;;;13.80;67.33
69302;BME280;56689;47.842;8.974;2024-02-16T12:51:38;96706.06;;;14.13;68.34
69302;BME280;56689;47.842;8.974;2024-02-16T12:54:04;96673.16;;;13.94;67.93
69302;BME280;56689;47.842;8.974;2024-02-16T12:56:30;96704.28;;;14.21;68.23